Maersk Varna — 9V8838 — position and weather

sailwx.info

Track history (hours):
 
Tides and Currents Weather Stations Pressure Air Temp Water Temp Dewpoint Dewpoint Depression Visibility Wind Speed Wind Dir Waves Ship Positions

Maersk Varna

Last reported at 2018-Jan-20 15:48 UTC. Time now 2018-Jan-21 16:22 UTC.
Position N 34°01' W 076°41'.

Length 180 m; draft 10.4 m.

Type: Ship (hazmat cat A). MMSI: 564822000.

Date/timePositionNaut miles runAvg speedWind from/ knotsBaromVisibWave heightAir tempDewpointWater temp
2018-Jan-20 15:48N 34°01' W 076°41'411.2
2018-Jan-20 15:28N 34°04' W 076°38'511.3
2018-Jan-20 15:00N 34°07' W 076°33'611.5
2018-Jan-20 14:30N 34°11' W 076°27'611.4
2018-Jan-20 14:00N 34°14' W 076°22'611.4
2018-Jan-20 13:30N 34°18' W 076°17'510.3
2018-Jan-20 13:00N 34°22' W 076°12'4 8.4
2018-Jan-20 12:30N 34°24' W 076°09'4 8.4
2018-Jan-20 12:00N 34°27' W 076°05'4 8.3
2018-Jan-20 11:30N 34°30' W 076°01'4 8.7
2018-Jan-20 11:00N 34°33' W 075°57'4 8.8
2018-Jan-20 10:30N 34°36' W 075°53'4 8.7
2018-Jan-20 10:00N 34°38' W 075°49'5 8.6
2018-Jan-20 09:28N 34°41' W 075°45'4 8.4
2018-Jan-20 08:59N 34°44' W 075°41'47 6.9
2018-Jan-20 02:07N 35°18' W 075°01'5 9.0
2018-Jan-20 01:36N 35°23' W 075°01'3 9.0
2018-Jan-20 01:17N 35°26' W 075°01'3 9.2
2018-Jan-20 01:00N 35°28' W 075°01'7611.0
2018-Jan-19 18:07N 36°38' W 075°37'516.0
2018-Jan-19 17:49N 36°42' W 075°40'412.1
2018-Jan-19 17:28N 36°46' W 075°43'5 9.7
2018-Jan-19 17:00N 36°49' W 075°47'510.1
2018-Jan-19 16:30N 36°52' W 075°52'5 9.8
2018-Jan-19 16:00N 36°55' W 075°57'5 9.7
2018-Jan-19 15:30N 36°57' W 076°02'814.8
2018-Jan-19 14:59N 36°60' W 076°11'611.9
2018-Jan-19 14:30N 36°59' W 076°19'4 9.0
2018-Jan-19 14:00N 36°55' W 076°20'4 6.5
2018-Jan-19 13:27N 36°52' W 076°19'0 0.1
2018-Jan-19 13:00N 36°51' W 076°19'0 0.0
2018-Jan-19 12:30N 36°51' W 076°19'0 0.0
2018-Jan-19 12:00N 36°51' W 076°19'0 0.0
2018-Jan-19 11:30N 36°51' W 076°19'0 0.0
2018-Jan-19 11:00N 36°51' W 076°19'0 0.0
2018-Jan-19 10:30N 36°51' W 076°19'0 0.0
2018-Jan-19 09:57N 36°51' W 076°19'0 0.0
2018-Jan-19 09:30N 36°51' W 076°19'0 0.0
2018-Jan-19 09:00N 36°51' W 076°19'0 0.0
2018-Jan-19 08:30N 36°51' W 076°19'0 0.0
2018-Jan-19 08:00N 36°51' W 076°19'0 0.0
2018-Jan-19 07:30N 36°51' W 076°19'0 0.0
2018-Jan-19 07:00N 36°51' W 076°19'0 0.0
2018-Jan-19 06:30N 36°51' W 076°19'0 0.0
2018-Jan-19 06:00N 36°51' W 076°19'0 0.0
2018-Jan-19 05:30N 36°51' W 076°19'0 0.0
2018-Jan-19 05:00N 36°51' W 076°19'0 0.0
2018-Jan-19 04:30N 36°51' W 076°19'0 0.0
2018-Jan-19 04:00N 36°51' W 076°19'0 0.0
2018-Jan-19 03:30N 36°51' W 076°19'0 0.0
2018-Jan-19 03:00N 36°51' W 076°19'0 0.0
2018-Jan-19 02:30N 36°51' W 076°19'0 0.0
2018-Jan-19 02:00N 36°51' W 076°19'0 0.0
2018-Jan-19 01:30N 36°51' W 076°19'0 0.0
2018-Jan-19 01:00N 36°51' W 076°19'0 0.0
2018-Jan-19 00:27N 36°51' W 076°19'0 0.0
2018-Jan-19 00:00N 36°51' W 076°19'0 0.0
2018-Jan-18 23:30N 36°51' W 076°19'0 0.0
2018-Jan-18 23:00N 36°51' W 076°19'0 0.0
2018-Jan-18 22:30N 36°51' W 076°19'0 0.0
2018-Jan-18 22:00N 36°51' W 076°19'0 0.0
2018-Jan-18 21:30N 36°51' W 076°19'0 0.7
2018-Jan-18 21:00N 36°52' W 076°19'4 7.2
2018-Jan-18 20:30N 36°55' W 076°20'5 9.1
2018-Jan-18 19:56N 37°00' W 076°18'814.2
2018-Jan-18 19:22N 36°59' W 076°08'9614.3
2018-Jan-18 12:41N 38°33' W 076°26'317.7
2018-Jan-18 12:31N 38°36' W 076°26'917.3
2018-Jan-18 12:01N 38°45' W 076°26'917.8
2018-Jan-18 11:31N 38°54' W 076°24'816.1
2018-Jan-18 11:00N 39°02' W 076°23'713.4
2018-Jan-18 10:30N 39°08' W 076°24'611.3
2018-Jan-18 10:00N 39°12' W 076°30'4 8.7
2018-Jan-18 09:30N 39°15' W 076°33'1 1.2
2018-Jan-18 09:00N 39°15' W 076°33'0 0.0
2018-Jan-18 08:30N 39°15' W 076°33'0 0.0
2018-Jan-18 08:00N 39°15' W 076°33'0 0.0
2018-Jan-18 07:30N 39°15' W 076°33'0 0.0
2018-Jan-18 07:00N 39°15' W 076°33'0 0.0
2018-Jan-18 06:30N 39°15' W 076°33'0 0.0
2018-Jan-18 06:00N 39°15' W 076°33'0 0.0
2018-Jan-18 05:30N 39°15' W 076°33'0 0.0
2018-Jan-18 05:00N 39°15' W 076°33'0 0.0
2018-Jan-18 04:30N 39°15' W 076°33'0 0.0
2018-Jan-18 04:00N 39°15' W 076°33'0 0.0
2018-Jan-18 03:30N 39°15' W 076°33'0 0.0
2018-Jan-18 03:00N 39°15' W 076°33'0 0.0
2018-Jan-18 02:30N 39°15' W 076°33'0 0.0
2018-Jan-18 02:00N 39°15' W 076°33'0 0.0
2018-Jan-18 01:30N 39°15' W 076°33'0 0.0
2018-Jan-18 01:00N 39°15' W 076°33'0 0.0
2018-Jan-18 00:00N 39°15' W 076°33'0 0.1
2018-Jan-17 23:57N 39°15' W 076°33'  
Track history (hours):
 
Tides and Currents Weather Stations Pressure Air Temp Water Temp Dewpoint Dewpoint Depression Visibility Wind Speed Wind Dir Waves Ship Positions

Maersk Varna

Last reported at 2018-Jan-20 15:48 UTC. Time now 2018-Jan-21 16:22 UTC.
Position N 34°01' W 076°41'.

Length 180 m; draft 10.4 m.

Type: Ship (hazmat cat A). MMSI: 564822000.

Date/timePositionNaut miles runAvg speedWind from/ knotsBaromVisibWave heightAir tempDewpointWater temp
2018-Jan-20 15:48N 34°01' W 076°41'411.2
2018-Jan-20 15:28N 34°04' W 076°38'511.3
2018-Jan-20 15:00N 34°07' W 076°33'611.5
2018-Jan-20 14:30N 34°11' W 076°27'611.4
2018-Jan-20 14:00N 34°14' W 076°22'611.4
2018-Jan-20 13:30N 34°18' W 076°17'510.3
2018-Jan-20 13:00N 34°22' W 076°12'4 8.4
2018-Jan-20 12:30N 34°24' W 076°09'4 8.4
2018-Jan-20 12:00N 34°27' W 076°05'4 8.3
2018-Jan-20 11:30N 34°30' W 076°01'4 8.7
2018-Jan-20 11:00N 34°33' W 075°57'4 8.8
2018-Jan-20 10:30N 34°36' W 075°53'4 8.7
2018-Jan-20 10:00N 34°38' W 075°49'5 8.6
2018-Jan-20 09:28N 34°41' W 075°45'4 8.4
2018-Jan-20 08:59N 34°44' W 075°41'47 6.9
2018-Jan-20 02:07N 35°18' W 075°01'5 9.0
2018-Jan-20 01:36N 35°23' W 075°01'3 9.0
2018-Jan-20 01:17N 35°26' W 075°01'3 9.2
2018-Jan-20 01:00N 35°28' W 075°01'7611.0
2018-Jan-19 18:07N 36°38' W 075°37'516.0
2018-Jan-19 17:49N 36°42' W 075°40'412.1
2018-Jan-19 17:28N 36°46' W 075°43'5 9.7
2018-Jan-19 17:00N 36°49' W 075°47'510.1
2018-Jan-19 16:30N 36°52' W 075°52'5 9.8
2018-Jan-19 16:00N 36°55' W 075°57'5 9.7
2018-Jan-19 15:30N 36°57' W 076°02'814.8
2018-Jan-19 14:59N 36°60' W 076°11'611.9
2018-Jan-19 14:30N 36°59' W 076°19'4 9.0
2018-Jan-19 14:00N 36°55' W 076°20'4 6.5
2018-Jan-19 13:27N 36°52' W 076°19'0 0.1
2018-Jan-19 13:00N 36°51' W 076°19'0 0.0
2018-Jan-19 12:30N 36°51' W 076°19'0 0.0
2018-Jan-19 12:00N 36°51' W 076°19'0 0.0
2018-Jan-19 11:30N 36°51' W 076°19'0 0.0
2018-Jan-19 11:00N 36°51' W 076°19'0 0.0
2018-Jan-19 10:30N 36°51' W 076°19'0 0.0
2018-Jan-19 09:57N 36°51' W 076°19'0 0.0
2018-Jan-19 09:30N 36°51' W 076°19'0 0.0
2018-Jan-19 09:00N 36°51' W 076°19'0 0.0
2018-Jan-19 08:30N 36°51' W 076°19'0 0.0
2018-Jan-19 08:00N 36°51' W 076°19'0 0.0
2018-Jan-19 07:30N 36°51' W 076°19'0 0.0
2018-Jan-19 07:00N 36°51' W 076°19'0 0.0
2018-Jan-19 06:30N 36°51' W 076°19'0 0.0
2018-Jan-19 06:00N 36°51' W 076°19'0 0.0
2018-Jan-19 05:30N 36°51' W 076°19'0 0.0
2018-Jan-19 05:00N 36°51' W 076°19'0 0.0
2018-Jan-19 04:30N 36°51' W 076°19'0 0.0
2018-Jan-19 04:00N 36°51' W 076°19'0 0.0
2018-Jan-19 03:30N 36°51' W 076°19'0 0.0
2018-Jan-19 03:00N 36°51' W 076°19'0 0.0
2018-Jan-19 02:30N 36°51' W 076°19'0 0.0
2018-Jan-19 02:00N 36°51' W 076°19'0 0.0
2018-Jan-19 01:30N 36°51' W 076°19'0 0.0
2018-Jan-19 01:00N 36°51' W 076°19'0 0.0
2018-Jan-19 00:27N 36°51' W 076°19'0 0.0
2018-Jan-19 00:00N 36°51' W 076°19'0 0.0
2018-Jan-18 23:30N 36°51' W 076°19'0 0.0
2018-Jan-18 23:00N 36°51' W 076°19'0 0.0
2018-Jan-18 22:30N 36°51' W 076°19'0 0.0
2018-Jan-18 22:00N 36°51' W 076°19'0 0.0
2018-Jan-18 21:30N 36°51' W 076°19'0 0.7
2018-Jan-18 21:00N 36°52' W 076°19'4 7.2
2018-Jan-18 20:30N 36°55' W 076°20'5 9.1
2018-Jan-18 19:56N 37°00' W 076°18'814.2
2018-Jan-18 19:22N 36°59' W 076°08'9614.3
2018-Jan-18 12:41N 38°33' W 076°26'317.7
2018-Jan-18 12:31N 38°36' W 076°26'917.3
2018-Jan-18 12:01N 38°45' W 076°26'917.8
2018-Jan-18 11:31N 38°54' W 076°24'816.1
2018-Jan-18 11:00N 39°02' W 076°23'713.4
2018-Jan-18 10:30N 39°08' W 076°24'611.3
2018-Jan-18 10:00N 39°12' W 076°30'4 8.7
2018-Jan-18 09:30N 39°15' W 076°33'1 1.2
2018-Jan-18 09:00N 39°15' W 076°33'0 0.0
2018-Jan-18 08:30N 39°15' W 076°33'0 0.0
2018-Jan-18 08:00N 39°15' W 076°33'0 0.0
2018-Jan-18 07:30N 39°15' W 076°33'0 0.0
2018-Jan-18 07:00N 39°15' W 076°33'0 0.0
2018-Jan-18 06:30N 39°15' W 076°33'0 0.0
2018-Jan-18 06:00N 39°15' W 076°33'0 0.0
2018-Jan-18 05:30N 39°15' W 076°33'0 0.0
2018-Jan-18 05:00N 39°15' W 076°33'0 0.0
2018-Jan-18 04:30N 39°15' W 076°33'0 0.0
2018-Jan-18 04:00N 39°15' W 076°33'0 0.0
2018-Jan-18 03:30N 39°15' W 076°33'0 0.0
2018-Jan-18 03:00N 39°15' W 076°33'0 0.0
2018-Jan-18 02:30N 39°15' W 076°33'0 0.0
2018-Jan-18 02:00N 39°15' W 076°33'0 0.0
2018-Jan-18 01:30N 39°15' W 076°33'0 0.0
2018-Jan-18 01:00N 39°15' W 076°33'0 0.0
2018-Jan-18 00:00N 39°15' W 076°33'0 0.1
2018-Jan-17 23:57N 39°15' W 076°33'  

Dump ship's entire track history